Time;durP1;ratioP1;P1;durP2;ratioP2;P2;SDS_P1;SDS_P2;PMS_P1;PMS_P2;Temp;Humidity;BMP_temperature;BMP_pressure;BME280_temperature;BME280_humidity;BME280_pressure;Samples;Min_cycle;Max_cycle;Signal;HPM_P1;HPM_P2
2023/11/08 00:13:25;;;;;;;17.90;13.50;;;;;;;11.27;100.00;99996.52;108219;1284;548454;-77
2023/11/08 00:17:52;;;;;;;;;;;;;;;;;;;;;
2023/11/08 00:37:18;;;;;;;;;;;;;;;;;;;;;
2023/11/08 00:41:42;;;;;;;12.00;8.90;;;;;;;11.47;100.00;100007.09;105137;1272;21980;-77
2023/11/08 00:50:30;;;;;;;;;;;;;;;;;;;;;
2023/11/08 01:15:18;;;;;;;;;;;;;;;;;;;;;
2023/11/08 01:19:12;;;;;;;;;;;;;;;;;;;;;
2023/11/08 01:23:45;;;;;;;16.50;9.70;;;;;;;10.58;100.00;99988.50;111783;1249;22489;-79
2023/11/08 01:46:54;;;;;;;13.20;8.30;;;;;;;11.48;100.00;99981.97;110497;1257;547977;-77
2023/11/08 01:51:35;;;;;;;;;;;;;;;;;;;;;
2023/11/08 02:31:10;;;;;;;;;;;;;;;;;;;;;
2023/11/08 03:11:57;;;;;;;;;;;;;;;;;;;;;
2023/11/08 03:42:25;;;;;;;;;;;;;;;;;;;;;
2023/11/08 03:50:48;;;;;;;;;;;;;;;;;;;;;
2023/11/08 03:54:03;;;;;;;;;;;;;;;;;;;;;
2023/11/08 03:58:03;;;;;;;;;;;;;;;;;;;;;
2023/11/08 04:25:55;;;;;;;;;;;;;;;;;;;;;
2023/11/08 04:29:41;;;;;;;;;;;;;;;;;;;;;
2023/11/08 04:34:50;;;;;;;8.30;6.00;;;;;;;9.59;100.00;100029.71;110145;1264;23062;-78
2023/11/08 04:38:12;;;;;;;25.70;23.10;;;;;;;9.44;100.00;100033.62;109385;1270;21991;-78
2023/11/08 04:46:36;;;;;;;8.00;5.30;;;;;;;9.21;100.00;100036.20;108686;1280;21991;-78
2023/11/08 05:06:15;;;;;;;;;;;;;;;;;;;;;
2023/11/08 05:15:10;;;;;;;;;;;;;;;;;;;;;
2023/11/08 05:23:57;;;;;;;10.70;5.40;;;;;;;9.38;100.00;100048.80;109044;1274;22060;-76
2023/11/08 05:27:19;;;;;;;9.60;7.30;;;;;;;9.28;100.00;100052.61;109301;1268;22633;-77
2023/11/08 05:49:33;;;;;;;;;;;;;;;;;;;;;
2023/11/08 05:58:18;;;;;;;9.30;6.00;;;;;;;9.78;100.00;100064.98;110513;1260;21968;-76
2023/11/08 06:01:12;;;;;;;10.40;6.70;;;;;;;9.58;100.00;100065.73;110533;1260;22727;-78
2023/11/08 06:04:18;;;;;;;21.30;9.70;;;;;;;9.46;100.00;100069.50;110567;1260;21981;-77
2023/11/08 06:07:48;;;;;;;17.10;10.40;;;;;;;9.34;100.00;100074.62;110044;1263;21996;-77
2023/11/08 06:11:14;;;;;;;;;;;;;;;;;;;;;
2023/11/08 06:18:26;;;;;;;;;;;;;;;;;;;;;
2023/11/08 06:21:14;;;;;;;11.50;7.20;;;;;;;8.95;100.00;100085.23;109655;1270;22046;-79
2023/11/08 06:23:59;;;;;;;12.20;6.80;;;;;;;8.92;100.00;100089.84;109548;1270;21993;-79
2023/11/08 06:27:07;;;;;;;11.60;6.30;;;;;;;8.95;100.00;100092.70;109715;1267;23707;-80
2023/11/08 06:30:16;;;;;;;14.10;6.40;;;;;;;8.96;100.00;100096.66;111138;1254;22004;-78
2023/11/08 06:33:03;;;;;;;9.30;5.50;;;;;;;9.01;100.00;100093.20;111281;1245;23047;-81
2023/11/08 06:35:41;;;;;;;6.90;5.10;;;;;;;9.08;100.00;100095.38;111275;1252;22779;-79
2023/11/08 06:38:37;;;;;;;;;;;;;;;;;;;;;
2023/11/08 06:41:19;;;;;;;7.50;4.70;;;;;;;9.18;100.00;100097.10;111851;1245;21951;-79
2023/11/08 06:44:23;;;;;;;7.40;5.10;;;;;;;9.21;100.00;100101.14;111761;1249;21969;-80
2023/11/08 06:47:17;;;;;;;8.70;4.60;;;;;;;9.23;100.00;100100.39;111610;1249;21953;-81
2023/11/08 06:49:56;;;;;;;6.20;3.70;;;;;;;9.24;100.00;100102.79;112163;1245;23775;-79
2023/11/08 06:52:46;;;;;;;;;;;;;;;;;;;;;
2023/11/08 06:55:58;;;;;;;6.30;4.40;;;;;;;9.34;100.00;100108.83;112955;1238;22391;-81
2023/11/08 06:58:57;;;;;;;7.00;4.40;;;;;;;9.43;100.00;100108.16;112927;1238;22782;-79
2023/11/08 07:02:11;;;;;;;9.30;4.30;;;;;;;9.44;100.00;100102.05;113184;1238;21979;-80
2023/11/08 07:05:56;;;;;;;;;;;;;;;;;;;;;
2023/11/08 07:15:57;;;;;;;8.10;4.90;;;;;;;9.85;100.00;100120.66;110134;1265;22966;-79
2023/11/08 07:19:43;;;;;;;9.50;6.40;;;;;;;10.01;100.00;100119.54;109495;1273;23781;-80
2023/11/08 08:06:20;;;;;;;5.10;3.70;;;;;;;12.11;100.00;100143.08;110437;1263;22821;-78
2023/11/08 08:10:25;;;;;;;;;;;;;;;;;;;;;
2023/11/08 08:28:56;;;;;;;;;;;;;;;;;;;;;
2023/11/08 08:31:42;;;;;;;6.60;3.70;;;;;;;12.95;100.00;100153.30;109508;1243;3510780;-80
2023/11/08 08:34:39;;;;;;;9.40;5.10;;;;;;;12.46;100.00;100153.10;112161;1245;21965;-82
2023/11/08 08:37:24;;;;;;;13.40;6.20;;;;;;;12.25;100.00;100154.11;112387;1242;21999;-78
2023/11/08 08:40:23;;;;;;;10.30;5.30;;;;;;;12.10;100.00;100151.52;112321;1243;22720;-79
2023/11/08 08:43:22;;;;;;;;;;;;;;;;;;;;;
2023/11/08 08:46:32;;;;;;;6.60;4.50;;;;;;;11.92;100.00;100149.58;111611;1249;23055;-80
2023/11/08 08:49:12;;;;;;;10.00;4.00;;;;;;;11.84;100.00;100135.80;111798;1249;23004;-81
2023/11/08 08:52:34;;;;;;;4.40;3.40;;;;;;;11.85;100.00;100151.78;111305;1253;23586;-79
2023/11/08 08:55:46;;;;;;;8.20;4.70;;;;;;;11.86;100.00;100155.59;111252;1253;24289;-80
2023/11/08 08:58:37;;;;;;;9.00;3.00;;;;;;;11.96;100.00;100157.56;111626;1248;21948;-78
2023/11/08 09:01:21;;;;;;;8.70;4.30;;;;;;;12.03;100.00;100158.13;111609;1248;23705;-78
2023/11/08 09:03:49;;;;;;;6.10;3.90;;;;;;;12.11;100.00;100152.02;111778;1243;23644;-78
2023/11/08 09:06:21;;;;;;;9.10;4.10;;;;;;;12.19;100.00;100151.10;112240;1242;23575;-77
2023/11/08 09:08:49;;;;;;;12.40;5.90;;;;;;;12.23;100.00;100156.66;112406;1242;22596;-85
2023/11/08 09:11:22;;;;;;;8.20;7.00;;;;;;;12.25;100.00;100160.75;112926;1233;21932;-79
2023/11/08 09:13:57;;;;;;;15.30;6.90;;;;;;;12.23;100.00;100159.43;113481;1233;21969;-79
2023/11/08 09:16:41;;;;;;;6.70;4.60;;;;;;;12.21;100.00;100157.46;113423;1233;22989;-76
2023/11/08 09:19:14;;;;;;;8.50;5.30;;;;;;;12.14;100.00;100163.54;113064;1233;22057;-73
2023/11/08 09:21:48;;;;;;;7.20;5.60;;;;;;;12.08;100.00;100161.21;113343;1233;21954;-74
2023/11/08 09:24:32;;;;;;;6.80;4.10;;;;;;;11.95;100.00;100166.70;113207;1233;21938;-73
2023/11/08 09:27:11;;;;;;;9.00;3.60;;;;;;;11.76;100.00;100166.46;113058;1233;22559;-73
2023/11/08 09:29:54;;;;;;;6.90;2.90;;;;;;;11.60;100.00;100165.11;113445;1233;21976;-75
2023/11/08 09:32:33;;;;;;;11.20;4.30;;;;;;;11.49;100.00;100169.07;113275;1232;22023;-74
2023/11/08 09:35:09;;;;;;;7.40;3.10;;;;;;;11.45;100.00;100171.88;113042;1232;21932;-73
2023/11/08 09:37:41;;;;;;;5.70;3.20;;;;;;;11.40;100.00;100168.28;112803;1239;21947;-74
2023/11/08 09:40:25;;;;;;;8.40;3.80;;;;;;;11.31;100.00;100168.84;111937;1244;22478;-75
2023/11/08 09:43:06;;;;;;;8.60;3.60;;;;;;;11.26;100.00;100166.61;111522;1250;21984;-74
2023/11/08 09:45:49;;;;;;;7.00;4.00;;;;;;;11.20;100.00;100166.54;111519;1250;21969;-72
2023/11/08 09:48:21;;;;;;;11.60;5.40;;;;;;;11.16;100.00;100168.44;111539;1250;23033;-73
2023/11/08 09:50:58;;;;;;;;;;;;;;;11.16;100.00;100174.18;111546;1250;23530;-73
2023/11/08 09:53:34;;;;;;;9.00;4.90;;;;;;;11.04;100.00;100176.44;111554;1250;21960;-75
2023/11/08 09:56:13;;;;;;;8.90;5.60;;;;;;;11.01;100.00;100175.02;111725;1244;21938;-74
2023/11/08 09:58:46;;;;;;;9.40;6.90;;;;;;;10.99;100.00;100173.70;112214;1232;23014;-73
2023/11/08 10:01:31;;;;;;;12.10;8.00;;;;;;;10.99;100.00;100176.33;112854;1239;21979;-74
2023/11/08 10:04:10;;;;;;;11.00;6.10;;;;;;;10.97;100.00;100177.10;112040;1244;22034;-75
2023/11/08 10:06:47;;;;;;;8.10;4.90;;;;;;;10.89;100.00;100175.66;112009;1239;22484;-82
2023/11/08 10:09:31;;;;;;;11.00;7.10;;;;;;;10.83;100.00;100175.21;113028;1232;23162;-81
2023/11/08 10:12:08;;;;;;;7.00;6.00;;;;;;;10.86;100.00;100170.04;112212;1245;23413;-79
2023/11/08 10:14:43;;;;;;;7.70;4.30;;;;;;;10.99;100.00;100167.08;112157;1245;22009;-81
2023/11/08 10:17:19;;;;;;;9.80;4.20;;;;;;;11.15;100.00;100165.70;112407;1245;21959;-79
2023/11/08 10:20:37;;;;;;;10.20;4.80;;;;;;;11.22;100.00;100159.30;112447;1238;24478;-79
2023/11/08 10:23:37;;;;;;;16.10;7.90;;;;;;;11.30;100.00;100158.09;113060;1239;22009;-79
2023/11/08 10:26:54;;;;;;;11.30;7.10;;;;;;;11.47;100.00;100157.31;112947;1232;21941;-78
2023/11/08 10:29:37;;;;;;;10.60;6.60;;;;;;;11.78;100.00;100153.83;113047;1232;21933;-78
2023/11/08 10:32:48;;;;;;;9.00;6.10;;;;;;;11.95;100.00;100151.15;113632;1232;21933;-79
2023/11/08 10:35:42;;;;;;;7.80;4.70;;;;;;;12.06;100.00;100155.52;112173;1244;23636;-79
2023/11/08 10:38:13;;;;;;;6.20;5.30;;;;;;;12.36;100.00;100151.15;111764;1250;21963;-78
2023/11/08 10:41:05;;;;;;;9.00;5.60;;;;;;;12.68;100.00;100143.11;111478;1250;22039;-79
2023/11/08 10:44:07;;;;;;;12.60;9.10;;;;;;;12.97;100.00;100136.81;111357;1254;21969;-78
2023/11/08 10:47:01;;;;;;;6.90;4.80;;;;;;;13.20;100.00;100130.36;111280;1254;23718;-80
2023/11/08 10:49:40;;;;;;;9.20;4.90;;;;;;;13.23;100.00;100125.66;111283;1254;21970;-79
2023/11/08 10:52:49;;;;;;;9.00;6.10;;;;;;;13.06;100.00;100130.41;110920;1259;23600;-80
2023/11/08 10:55:53;;;;;;;5.90;3.40;;;;;;;12.91;100.00;100135.70;110474;1259;22007;-77
2023/11/08 10:58:57;;;;;;;8.20;5.00;;;;;;;12.85;100.00;100137.71;110748;1259;21973;-78
2023/11/08 11:02:15;;;;;;;9.10;4.60;;;;;;;12.96;100.00;100135.46;110689;1256;22610;-77
2023/11/08 11:05:08;;;;;;;5.20;3.50;;;;;;;13.09;100.00;100129.68;110962;1251;23711;-77
2023/11/08 11:08:20;;;;;;;6.90;3.80;;;;;;;13.21;100.00;100125.05;111423;1250;23616;-76
2023/11/08 11:11:05;;;;;;;6.90;3.80;;;;;;;13.42;100.00;100122.21;111377;1250;22775;-79
2023/11/08 11:14:51;;;;;;;7.80;4.00;;;;;;;13.48;100.00;100119.48;111158;1251;22874;-77
2023/11/08 11:18:12;;;;;;;;;;;;;;;;;;;;;
2023/11/08 11:21:34;;;;;;;6.10;3.60;;;;;;;13.16;100.00;100128.83;112096;1244;22711;-76
2023/11/08 11:24:47;;;;;;;;;;;;;;;;;;;;;
2023/11/08 11:28:36;;;;;;;7.00;4.00;;;;;;;12.81;100.00;100130.80;111594;1251;21985;-78
2023/11/08 11:32:40;;;;;;;6.50;3.70;;;;;;;12.62;100.00;100129.45;112092;1239;21946;-79
2023/11/08 11:35:43;;;;;;;5.40;2.50;;;;;;;12.48;100.00;100127.20;112737;1239;23698;-78
2023/11/08 11:39:54;;;;;;;;;;;;;;;;;;;;;
2023/11/08 11:42:38;;;;;;;6.80;2.60;;;;;;;12.07;100.00;100126.20;112316;1246;21966;-79
2023/11/08 11:45:54;;;;;;;5.10;2.40;;;;;;;11.98;100.00;100130.82;112295;1239;22138;-79
2023/11/08 11:49:19;;;;;;;6.00;3.30;;;;;;;11.87;100.00;100134.45;113047;1239;21951;-79
2023/11/08 11:52:40;;;;;;;6.20;3.80;;;;;;;11.78;100.00;100134.15;113165;1239;21958;-79
2023/11/08 11:55:30;;;;;;;6.00;3.10;;;;;;;11.72;100.00;100131.64;112905;1239;24283;-79
2023/11/08 11:58:42;;;;;;;6.40;4.20;;;;;;;11.69;100.00;100133.70;112715;1239;23607;-79
2023/11/08 12:02:01;;;;;;;6.80;4.50;;;;;;;11.58;100.00;100121.27;113577;1232;22014;-79
2023/11/08 12:05:50;;;;;;;;;;;;;;;;;;;;;
2023/11/08 12:09:17;;;;;;;7.70;3.40;;;;;;;11.57;100.00;100134.41;112954;1240;21946;-78
2023/11/08 12:12:55;;;;;;;10.10;5.10;;;;;;;11.57;100.00;100134.07;112684;1240;21962;-79
2023/11/08 12:15:49;;;;;;;14.90;5.80;;;;;;;11.61;100.00;100135.80;112198;1245;21957;-78
2023/11/08 12:18:44;;;;;;;10.60;5.20;;;;;;;11.64;100.00;100136.35;111829;1249;21971;-80
2023/11/08 12:21:50;;;;;;;12.10;6.90;;;;;;;11.67;100.00;100138.64;111631;1247;21972;-79
2023/11/08 12:24:51;;;;;;;8.10;5.20;;;;;;;11.68;100.00;100139.30;111374;1253;21989;-79
2023/11/08 12:28:05;;;;;;;;;;;;;;;;;;;;;
2023/11/08 12:32:14;;;;;;;12.70;7.80;;;;;;;11.64;100.00;100136.34;111398;1253;22527;-77
2023/11/08 12:35:29;;;;;;;11.30;4.30;;;;;;;11.66;100.00;100137.63;112058;1248;22063;-80
2023/11/08 12:38:05;;;;;;;8.00;4.50;;;;;;;11.74;100.00;100137.13;111664;1248;23761;-80
2023/11/08 12:40:40;;;;;;;7.70;4.20;;;;;;;11.77;100.00;100138.90;112187;1241;23722;-80
2023/11/08 12:43:12;;;;;;;8.20;4.80;;;;;;;11.76;100.00;100141.04;112176;1245;22717;-81
2023/11/08 12:46:14;;;;;;;9.30;5.20;;;;;;;11.75;100.00;100142.80;112179;1246;22637;-81
2023/11/08 12:49:36;;;;;;;10.70;6.60;;;;;;;11.72;100.00;100139.66;112204;1246;23014;-82
2023/11/08 12:52:20;;;;;;;7.30;5.10;;;;;;;11.70;100.00;100137.83;112152;1244;23736;-80
2023/11/08 12:55:03;;;;;;;9.30;5.50;;;;;;;11.71;100.00;100133.77;112426;1240;22947;-81
2023/11/08 12:57:35;;;;;;;9.80;5.30;;;;;;;11.76;100.00;100135.98;112225;1244;22419;-80
2023/11/08 13:00:11;;;;;;;7.70;5.00;;;;;;;11.82;100.00;100133.27;112309;1244;23149;-81
2023/11/08 13:03:01;;;;;;;10.70;6.00;;;;;;;11.87;100.00;100130.60;113042;1238;21961;-86
2023/11/08 13:06:32;;;;;;;9.80;5.00;;;;;;;11.91;100.00;100129.04;113085;1238;23680;-79
2023/11/08 13:09:59;;;;;;;;;;;;;;;;;;;;;
2023/11/08 13:12:55;;;;;;;14.00;4.90;;;;;;;11.87;100.00;100127.81;112653;1244;21962;-81
2023/11/08 13:16:13;;;;;;;12.10;5.20;;;;;;;11.90;100.00;100124.55;112798;1240;23767;-80
2023/11/08 13:19:01;;;;;;;8.70;5.30;;;;;;;11.89;100.00;100126.67;112251;1244;22408;-80
2023/11/08 13:21:48;;;;;;;11.70;5.40;;;;;;;11.87;100.00;100125.02;111868;1249;21976;-81
2023/11/08 13:24:24;;;;;;;13.70;8.00;;;;;;;11.88;100.00;100125.48;111749;1249;21972;-81
2023/11/08 13:27:22;;;;;;;14.10;9.80;;;;;;;11.87;100.00;100123.29;111851;1249;23077;-81
2023/11/08 13:30:06;;;;;;;10.60;6.80;;;;;;;11.82;100.00;100123.65;112052;1249;22039;-82
2023/11/08 13:33:00;;;;;;;6.60;3.80;;;;;;;11.82;100.00;100129.27;111633;1249;23021;-82
2023/11/08 13:35:39;;;;;;;9.10;4.50;;;;;;;11.82;100.00;100132.59;111645;1249;21976;-81
2023/11/08 13:38:34;;;;;;;8.20;5.30;;;;;;;11.80;100.00;100138.04;112308;1243;22333;-78
2023/11/08 13:41:30;;;;;;;9.90;6.40;;;;;;;11.78;100.00;100139.05;112931;1240;23677;-79
2023/11/08 13:44:21;;;;;;;12.60;7.20;;;;;;;11.73;100.00;100138.38;112927;1236;21918;-79
2023/11/08 13:47:26;;;;;;;8.90;5.30;;;;;;;11.61;100.00;100137.52;112848;1240;21976;-78
2023/11/08 13:50:36;;;;;;;9.20;4.70;;;;;;;11.50;100.00;100135.76;112246;1244;21974;-80
2023/11/08 13:53:32;;;;;;;7.70;4.20;;;;;;;11.38;100.00;100128.98;111723;1250;23100;-78
2023/11/08 13:56:16;;;;;;;8.80;4.30;;;;;;;11.35;100.00;100136.80;111594;1249;23739;-81
2023/11/08 13:58:55;;;;;;;5.20;3.50;;;;;;;11.37;100.00;100137.39;111870;1250;23772;-78
2023/11/08 14:01:49;;;;;;;5.70;4.20;;;;;;;11.35;100.00;100133.82;111655;1250;21958;-78
2023/11/08 14:04:41;;;;;;;10.90;4.80;;;;;;;11.31;100.00;100134.18;112082;1244;22400;-79
2023/11/08 14:07:28;;;;;;;8.10;5.60;;;;;;;11.29;100.00;100135.80;112102;1238;21963;-77
2023/11/08 14:10:06;;;;;;;10.10;6.70;;;;;;;11.29;100.00;100138.61;113111;1238;22403;-76
2023/11/08 14:12:56;;;;;;;11.10;7.00;;;;;;;11.25;100.00;100141.73;113565;1232;22577;-79
2023/11/08 14:15:44;;;;;;;19.20;9.90;;;;;;;11.21;100.00;100141.73;113052;1238;21951;-78
2023/11/08 14:18:42;;;;;;;22.80;13.70;;;;;;;11.20;100.00;100139.53;112202;1245;23051;-76
2023/11/08 14:21:32;;;;;;;23.60;16.80;;;;;;;11.20;100.00;100136.60;111970;1245;23131;-76
2023/11/08 14:24:11;;;;;;;23.40;16.20;;;;;;;11.21;100.00;100133.93;111370;1250;22060;-78
2023/11/08 14:26:48;;;;;;;17.70;12.30;;;;;;;11.22;100.00;100135.45;111564;1250;23588;-77
2023/11/08 14:29:30;;;;;;;16.50;10.50;;;;;;;11.20;100.00;100138.83;111588;1250;23076;-81
2023/11/08 14:32:17;;;;;;;11.60;7.40;;;;;;;11.18;100.00;100137.20;111315;1253;23048;-78
2023/11/08 14:35:10;;;;;;;13.90;8.70;;;;;;;11.17;100.00;100140.37;111656;1248;22977;-78
2023/11/08 14:38:00;;;;;;;14.50;10.00;;;;;;;11.08;100.00;100140.95;112684;1243;21955;-80
2023/11/08 14:40:42;;;;;;;13.50;8.60;;;;;;;11.11;100.00;100143.59;112351;1242;22980;-78
2023/11/08 14:43:27;;;;;;;18.50;11.70;;;;;;;11.12;100.00;100147.38;112574;1239;23593;-79
2023/11/08 14:46:05;;;;;;;14.30;9.00;;;;;;;11.12;100.00;100148.40;111992;1244;21976;-77
2023/11/08 14:48:47;;;;;;;17.30;11.90;;;;;;;11.13;100.00;100147.16;112201;1244;23011;-80
2023/11/08 14:51:28;;;;;;;45.00;26.90;;;;;;;11.08;100.00;100151.88;112712;1238;21945;-77
2023/11/08 14:54:03;;;;;;;27.00;19.00;;;;;;;11.05;100.00;100153.39;112289;1242;21947;-77
2023/11/08 14:56:40;;;;;;;33.80;19.10;;;;;;;11.00;100.00;100153.98;111572;1250;23332;-77
2023/11/08 14:59:21;;;;;;;21.40;13.60;;;;;;;10.97;100.00;100156.73;111233;1254;21968;-79
2023/11/08 15:01:58;;;;;;;20.30;12.00;;;;;;;10.93;100.00;100157.39;111182;1254;21963;-78
2023/11/08 15:04:39;;;;;;;20.70;12.60;;;;;;;10.89;100.00;100156.18;111188;1252;23829;-79
2023/11/08 15:07:17;;;;;;;19.80;12.30;;;;;;;10.87;100.00;100156.96;111472;1253;22357;-78
2023/11/08 15:10:15;;;;;;;14.80;8.40;;;;;;;10.85;100.00;100155.81;111390;1252;21965;-79
2023/11/08 15:12:53;;;;;;;11.90;6.60;;;;;;;10.86;100.00;100157.35;111592;1250;23711;-78
2023/11/08 15:15:42;;;;;;;10.40;5.70;;;;;;;10.85;100.00;100161.38;111494;1250;22446;-78
2023/11/08 15:18:24;;;;;;;11.20;6.70;;;;;;;10.83;100.00;100163.55;111339;1250;23852;-78
2023/11/08 15:21:12;;;;;;;7.60;5.20;;;;;;;10.79;100.00;100165.83;111330;1254;22844;-78
2023/11/08 15:23:57;;;;;;;7.60;4.50;;;;;;;10.76;100.00;100171.50;111290;1254;23665;-77
2023/11/08 15:26:32;;;;;;;;;;;;;;;10.75;100.00;100164.94;111026;1259;21975;-78
2023/11/08 15:29:09;;;;;;;9.60;4.90;;;;;;;10.65;100.00;100163.95;110700;1260;22485;-79
2023/11/08 15:31:59;;;;;;;10.90;6.40;;;;;;;10.62;100.00;100163.56;110760;1260;23645;-79
2023/11/08 15:34:37;;;;;;;14.40;7.50;;;;;;;10.62;100.00;100166.20;110643;1260;22212;-80
2023/11/08 15:37:25;;;;;;;14.10;7.80;;;;;;;10.57;100.00;100176.64;110765;1256;21989;-78
2023/11/08 15:40:11;;;;;;;9.50;7.40;;;;;;;10.50;100.00;100172.55;111700;1245;22996;-80
2023/11/08 15:43:08;;;;;;;12.90;7.40;;;;;;;10.44;100.00;100167.08;112016;1245;22619;-78
2023/11/08 15:46:10;;;;;;;15.10;8.00;;;;;;;10.36;100.00;100161.30;112711;1238;23725;-81
2023/11/08 15:48:59;;;;;;;12.90;8.40;;;;;;;10.29;100.00;100159.11;113396;1232;22697;-78
2023/11/08 15:51:51;;;;;;;14.40;11.90;;;;;;;10.26;100.00;100165.48;113383;1233;21908;-80
2023/11/08 15:54:28;;;;;;;17.10;12.80;;;;;;;10.25;100.00;100163.45;113433;1232;22686;-78
2023/11/08 15:57:11;;;;;;;19.20;16.20;;;;;;;10.23;100.00;100163.70;113492;1232;21963;-77
2023/11/08 15:59:54;;;;;;;29.60;23.90;;;;;;;10.21;100.00;100161.35;113514;1233;21958;-77
2023/11/08 16:02:54;;;;;;;38.20;31.70;;;;;;;10.18;100.00;100164.08;112809;1238;21942;-77
2023/11/08 16:05:36;;;;;;;;;;;;;;;10.17;100.00;100163.59;112796;1238;21947;-78
2023/11/08 16:08:11;;;;;;;44.40;37.30;;;;;;;10.06;100.00;100164.53;112274;1244;22723;-77
2023/11/08 16:11:04;;;;;;;42.50;33.80;;;;;;;10.03;100.00;100162.38;112272;1244;21965;-76
2023/11/08 16:13:52;;;;;;;43.70;32.30;;;;;;;10.03;100.00;100165.52;111443;1250;21955;-77
2023/11/08 16:16:54;;;;;;;35.60;27.90;;;;;;;10.02;100.00;100164.16;111604;1250;21997;-76
2023/11/08 16:19:42;;;;;;;30.80;25.70;;;;;;;9.99;100.00;100161.84;111621;1250;23006;-77
2023/11/08 16:22:24;;;;;;;42.00;31.40;;;;;;;10.00;100.00;100166.34;111611;1249;21939;-77
2023/11/08 16:25:27;;;;;;;37.20;31.30;;;;;;;9.99;100.00;100162.56;111667;1249;22735;-78
2023/11/08 16:28:55;;;;;;;34.70;23.20;;;;;;;9.84;100.00;100149.71;112662;1244;23015;-80
2023/11/08 16:31:59;;;;;;;31.10;26.50;;;;;;;9.93;100.00;100169.37;112469;1237;23645;-77
2023/11/08 16:34:56;;;;;;;44.00;36.10;;;;;;;9.95;100.00;100175.39;113030;1237;21946;-78
2023/11/08 16:37:35;;;;;;;32.20;27.70;;;;;;;9.95;100.00;100177.27;112778;1237;21943;-79
2023/11/08 16:40:16;;;;;;;26.70;22.50;;;;;;;9.94;100.00;100181.33;112802;1237;23829;-78
2023/11/08 16:42:51;;;;;;;29.40;23.20;;;;;;;9.92;100.00;100178.61;112025;1244;22044;-79
2023/11/08 16:45:30;;;;;;;30.10;23.10;;;;;;;9.89;100.00;100179.77;111647;1249;22922;-77
2023/11/08 16:48:26;;;;;;;28.20;20.90;;;;;;;9.84;100.00;100177.38;111780;1244;22048;-78
2023/11/08 16:51:12;;;;;;;31.90;22.60;;;;;;;9.81;100.00;100177.14;112806;1244;22250;-80
2023/11/08 16:53:51;;;;;;;30.90;22.70;;;;;;;9.80;100.00;100176.11;112034;1244;21965;-77
2023/11/08 16:56:47;;;;;;;29.80;23.60;;;;;;;9.79;100.00;100173.73;112350;1244;21977;-78
2023/11/08 16:59:20;;;;;;;34.10;28.10;;;;;;;9.79;100.00;100177.90;112593;1244;24093;-80
2023/11/08 17:02:12;;;;;;;30.40;24.10;;;;;;;9.81;100.00;100177.65;112844;1238;22233;-78
2023/11/08 17:04:59;;;;;;;56.90;49.30;;;;;;;9.83;100.00;100179.31;113307;1233;23716;-78
2023/11/08 17:07:47;;;;;;;28.20;22.50;;;;;;;9.83;100.00;100184.02;113463;1232;22005;-77
2023/11/08 17:10:32;;;;;;;29.70;23.40;;;;;;;9.81;100.00;100187.88;113423;1233;23089;-76
2023/11/08 17:13:24;;;;;;;28.10;21.10;;;;;;;9.81;100.00;100191.02;113478;1233;23605;-78
2023/11/08 17:16:09;;;;;;;50.10;41.20;;;;;;;9.81;100.00;100193.98;113678;1233;22417;-78
2023/11/08 17:18:57;;;;;;;91.40;78.60;;;;;;;9.79;100.00;100193.18;113231;1233;21972;-77
2023/11/08 17:21:34;;;;;;;48.40;43.10;;;;;;;9.73;100.00;100185.75;112858;1239;22691;-78
2023/11/08 17:24:12;;;;;;;43.80;34.30;;;;;;;9.74;100.00;100188.15;112375;1244;22002;-79
2023/11/08 17:26:48;;;;;;;26.70;20.20;;;;;;;9.84;100.00;100201.52;112486;1244;22698;-77
2023/11/08 17:29:34;;;;;;;28.40;20.50;;;;;;;9.85;100.00;100201.85;112466;1243;22452;-78
2023/11/08 17:32:18;;;;;;;28.80;22.40;;;;;;;9.85;100.00;100206.02;112351;1244;22007;-78
2023/11/08 17:35:02;;;;;;;31.50;26.70;;;;;;;9.84;100.00;100206.75;112366;1243;21954;-78
2023/11/08 17:37:46;;;;;;;40.20;34.10;;;;;;;9.84;100.00;100208.31;111986;1246;21965;-79
2023/11/08 17:40:36;;;;;;;43.50;33.20;;;;;;;9.84;100.00;100208.48;111790;1249;21992;-77
2023/11/08 17:43:14;;;;;;;23.90;19.10;;;;;;;9.83;100.00;100209.73;111639;1250;24176;-79
2023/11/08 17:45:50;;;;;;;24.60;18.80;;;;;;;9.84;100.00;100208.48;111446;1248;21956;-78
2023/11/08 17:48:43;;;;;;;26.80;21.10;;;;;;;9.85;100.00;100210.35;111432;1254;21961;-79
2023/11/08 17:51:26;;;;;;;25.90;20.50;;;;;;;9.85;100.00;100211.05;111248;1254;22715;-80
2023/11/08 17:54:12;;;;;;;30.10;21.30;;;;;;;9.87;100.00;100210.61;111547;1254;21973;-78
2023/11/08 17:56:58;;;;;;;32.30;22.70;;;;;;;9.87;100.00;100207.65;111746;1242;21965;-77
2023/11/08 17:59:36;;;;;;;32.40;20.20;;;;;;;9.88;100.00;100207.44;111486;1252;21990;-79
2023/11/08 18:02:19;;;;;;;25.30;18.20;;;;;;;9.86;100.00;100207.00;111964;1247;23684;-77
2023/11/08 18:05:06;;;;;;;30.60;22.80;;;;;;;9.84;100.00;100211.94;112191;1242;21963;-77
2023/11/08 18:07:39;;;;;;;23.80;17.70;;;;;;;9.87;100.00;100212.36;113243;1236;22735;-76
2023/11/08 18:10:23;;;;;;;26.20;16.70;;;;;;;9.89;100.00;100213.65;112350;1238;23756;-76
2023/11/08 18:13:02;;;;;;;21.10;13.80;;;;;;;9.93;100.00;100222.23;112566;1243;21981;-78
2023/11/08 18:15:59;;;;;;;;;;;;;;;;;;;;;
2023/11/08 18:18:43;;;;;;;25.50;17.30;;;;;;;9.96;100.00;100223.34;112633;1243;22039;-78
2023/11/08 18:21:26;;;;;;;23.10;14.30;;;;;;;9.96;100.00;100224.86;112297;1242;21929;-77
2023/11/08 18:24:04;;;;;;;20.30;13.90;;;;;;;9.99;100.00;100225.30;112424;1242;22293;-77
2023/11/08 18:26:34;;;;;;;17.00;11.30;;;;;;;10.01;100.00;100224.16;112372;1243;21946;-76
2023/11/08 18:29:10;;;;;;;15.50;10.10;;;;;;;10.02;100.00;100223.27;112317;1242;21986;-77
2023/11/08 18:31:49;;;;;;;;;;;;;;;10.02;100.00;100222.60;112978;1239;23668;-76
2023/11/08 18:34:34;;;;;;;28.20;16.40;;;;;;;9.91;100.00;100221.94;112873;1239;21965;-79
2023/11/08 18:37:12;;;;;;;26.60;19.40;;;;;;;9.91;100.00;100223.34;112926;1239;23028;-78
2023/11/08 18:40:06;;;;;;;34.50;26.40;;;;;;;9.92;100.00;100225.21;112906;1239;23702;-78
2023/11/08 18:42:54;;;;;;;26.50;19.70;;;;;;;9.92;100.00;100227.27;113311;1239;24296;-79
2023/11/08 18:45:38;;;;;;;29.60;19.50;;;;;;;9.92;100.00;100228.67;112883;1239;21948;-76
2023/11/08 18:48:15;;;;;;;22.20;15.60;;;;;;;9.95;100.00;100231.34;112682;1238;21968;-76
2023/11/08 18:50:55;;;;;;;17.60;12.20;;;;;;;9.99;100.00;100235.03;113006;1237;21928;-77
2023/11/08 18:53:41;;;;;;;17.90;11.30;;;;;;;9.98;100.00;100238.52;113115;1237;22363;-76
2023/11/08 18:56:21;;;;;;;16.80;11.70;;;;;;;9.99;100.00;100240.56;112062;1243;23039;-77
2023/11/08 18:58:56;;;;;;;19.70;12.60;;;;;;;10.02;100.00;100245.20;111697;1248;21956;-77
2023/11/08 19:01:33;;;;;;;15.40;12.80;;;;;;;10.04;100.00;100244.77;111917;1246;23915;-76
2023/11/08 19:04:22;;;;;;;19.70;13.50;;;;;;;10.04;100.00;100254.15;111738;1248;22425;-79
2023/11/08 19:06:55;;;;;;;15.70;11.60;;;;;;;10.04;100.00;100256.56;112510;1244;21969;-77
2023/11/08 19:10:03;;;;;;;14.80;9.50;;;;;;;9.99;100.00;100245.47;111749;1251;22986;-75
2023/11/08 19:12:45;;;;;;;14.20;10.60;;;;;;;10.07;100.00;100257.34;111558;1249;22346;-80
2023/11/08 19:15:28;;;;;;;15.30;10.10;;;;;;;10.10;100.00;100257.40;112132;1244;22701;-78
2023/11/08 19:18:19;;;;;;;16.10;9.30;;;;;;;10.11;100.00;100259.09;112002;1245;22732;-76
2023/11/08 19:21:22;;;;;;;14.40;10.40;;;;;;;10.10;100.00;100262.42;112082;1245;21981;-79
2023/11/08 19:24:28;;;;;;;17.80;10.90;;;;;;;10.08;100.00;100261.64;112089;1245;21953;-80
2023/11/08 19:27:13;;;;;;;19.30;12.00;;;;;;;10.11;100.00;100263.79;111967;1245;23019;-81
2023/11/08 19:29:53;;;;;;;14.70;9.40;;;;;;;10.11;100.00;100262.91;111610;1251;23588;-82
2023/11/08 19:32:59;;;;;;;20.60;12.70;;;;;;;10.11;100.00;100261.37;111650;1251;23624;-80
2023/11/08 19:35:58;;;;;;;19.70;11.70;;;;;;;10.06;100.00;100257.21;111477;1245;22006;-80
2023/11/08 19:38:57;;;;;;;30.00;22.80;;;;;;;10.03;100.00;100262.19;112340;1245;22416;-78